sensor_id;sensor_type;location;lat;lon;timestamp;P1;P2;P0
77239;PMS7003;66258;53.170;-2.240;2023-05-10T00:01:37;88.40;79.80;78.00
77239;PMS7003;66258;53.170;-2.240;2023-05-10T00:04:05;93.40;91.60;85.80
77239;PMS7003;66258;53.170;-2.240;2023-05-10T00:06:32;79.60;67.80;64.40
77239;PMS7003;66258;53.170;-2.240;2023-05-10T00:09:00;206.75;206.75;170.50
77239;PMS7003;66258;53.170;-2.240;2023-05-10T00:11:30;283.50;279.75;267.00
77239;PMS7003;66258;53.170;-2.240;2023-05-10T00:13:59;79.50;69.50;67.00
77239;PMS7003;66258;53.170;-2.240;2023-05-10T00:16:26;88.80;84.60;81.60
77239;PMS7003;66258;53.170;-2.240;2023-05-10T00:18:57;89.60;84.60;80.60
77239;PMS7003;66258;53.170;-2.240;2023-05-10T00:21:25;91.40;88.60;84.80
77239;PMS7003;66258;53.170;-2.240;2023-05-10T00:23:52;85.40;78.00;69.80
77239;PMS7003;66258;53.170;-2.240;2023-05-10T00:26:20;93.40;91.40;83.00
77239;PMS7003;66258;53.170;-2.240;2023-05-10T00:28:47;101.40;98.20;85.40
77239;PMS7003;66258;53.170;-2.240;2023-05-10T00:31:16;96.50;96.50;86.25
77239;PMS7003;66258;53.170;-2.240;2023-05-10T00:33:45;168.60;164.00;148.60
77239;PMS7003;66258;53.170;-2.240;2023-05-10T00:36:13;95.20;91.00;78.20
77239;PMS7003;66258;53.170;-2.240;2023-05-10T00:38:41;80.50;70.00;64.00
77239;PMS7003;66258;53.170;-2.240;2023-05-10T00:41:09;86.20;78.40;68.60
77239;PMS7003;66258;53.170;-2.240;2023-05-10T00:43:37;76.50;64.75;60.25
77239;PMS7003;66258;53.170;-2.240;2023-05-10T00:46:04;84.00;74.40;68.60
77239;PMS7003;66258;53.170;-2.240;2023-05-10T00:48:34;72.50;61.75;55.75
77239;PMS7003;66258;53.170;-2.240;2023-05-10T00:51:02;93.40;91.20;87.60
77239;PMS7003;66258;53.170;-2.240;2023-05-10T00:53:30;88.20;83.20;76.60
77239;PMS7003;66258;53.170;-2.240;2023-05-10T00:55:59;87.80;81.60;73.60
77239;PMS7003;66258;53.170;-2.240;2023-05-10T00:58:27;94.25;90.50;72.75
77239;PMS7003;66258;53.170;-2.240;2023-05-10T01:00:56;96.40;95.80;91.80
77239;PMS7003;66258;53.170;-2.240;2023-05-10T01:03:25;492.25;490.75;446.75
77239;PMS7003;66258;53.170;-2.240;2023-05-10T01:05:54;90.40;84.60;75.60
77239;PMS7003;66258;53.170;-2.240;2023-05-10T01:08:23;94.60;93.00;83.20
77239;PMS7003;66258;53.170;-2.240;2023-05-10T01:10:53;1980.20;1980.20;1972.60
77239;PMS7003;66258;53.170;-2.240;2023-05-10T01:13:26;486.40;485.00;465.60
77239;PMS7003;66258;53.170;-2.240;2023-05-10T01:16:00;101.00;99.50;80.25
77239;PMS7003;66258;53.170;-2.240;2023-05-10T01:18:36;94.50;91.50;86.75
77239;PMS7003;66258;53.170;-2.240;2023-05-10T01:21:15;875.00;874.60;851.80
77239;PMS7003;66258;53.170;-2.240;2023-05-10T01:24:08;484.60;483.00;458.60
77239;PMS7003;66258;53.170;-2.240;2023-05-10T01:26:59;493.40;492.40;463.80
77239;PMS7003;66258;53.170;-2.240;2023-05-10T01:29:46;1119.80;1118.00;1087.00
77239;PMS7003;66258;53.170;-2.240;2023-05-10T01:32:43;96.20;92.40;82.60
77239;PMS7003;66258;53.170;-2.240;2023-05-10T01:35:26;176.00;174.40;156.20
77239;PMS7003;66258;53.170;-2.240;2023-05-10T01:37:59;386.25;385.75;360.25
77239;PMS7003;66258;53.170;-2.240;2023-05-10T01:40:36;333.40;333.40;301.60
77239;PMS7003;66258;53.170;-2.240;2023-05-10T01:43:11;98.25;98.25;75.00
77239;PMS7003;66258;53.170;-2.240;2023-05-10T01:45:50;177.20;176.60;159.40
77239;PMS7003;66258;53.170;-2.240;2023-05-10T01:48:33;885.40;885.40;850.20
77239;PMS7003;66258;53.170;-2.240;2023-05-10T01:51:01;886.25;884.00;865.00
77239;PMS7003;66258;53.170;-2.240;2023-05-10T01:53:33;70.50;60.00;52.75
77239;PMS7003;66258;53.170;-2.240;2023-05-10T01:56:05;84.60;75.60;71.20
77239;PMS7003;66258;53.170;-2.240;2023-05-10T01:58:36;76.80;63.20;57.60
77239;PMS7003;66258;53.170;-2.240;2023-05-10T02:01:10;89.80;81.60;68.80
77239;PMS7003;66258;53.170;-2.240;2023-05-10T02:03:42;93.40;90.00;67.80
77239;PMS7003;66258;53.170;-2.240;2023-05-10T02:06:11;1672.40;1669.40;1646.80
77239;PMS7003;66258;53.170;-2.240;2023-05-10T02:08:41;1359.20;1355.60;1340.00
77239;PMS7003;66258;53.170;-2.240;2023-05-10T02:11:13;506.60;502.20;445.20
77239;PMS7003;66258;53.170;-2.240;2023-05-10T02:13:41;565.20;563.60;542.40
77239;PMS7003;66258;53.170;-2.240;2023-05-10T02:16:09;91.20;85.60;81.80
77239;PMS7003;66258;53.170;-2.240;2023-05-10T02:18:41;73.00;61.20;54.40
77239;PMS7003;66258;53.170;-2.240;2023-05-10T02:21:10;90.40;83.20;80.00
77239;PMS7003;66258;53.170;-2.240;2023-05-10T02:23:38;80.00;69.60;64.20
77239;PMS7003;66258;53.170;-2.240;2023-05-10T02:26:06;78.40;66.80;61.60
77239;PMS7003;66258;53.170;-2.240;2023-05-10T02:28:37;84.25;73.00;68.50
77239;PMS7003;66258;53.170;-2.240;2023-05-10T02:31:07;93.40;87.20;80.20
77239;PMS7003;66258;53.170;-2.240;2023-05-10T02:33:38;94.75;90.25;84.75
77239;PMS7003;66258;53.170;-2.240;2023-05-10T02:36:11;94.50;91.75;80.00
77239;PMS7003;66258;53.170;-2.240;2023-05-10T02:38:40;340.20;339.40;293.40
77239;PMS7003;66258;53.170;-2.240;2023-05-10T02:41:08;94.00;90.80;83.60
77239;PMS7003;66258;53.170;-2.240;2023-05-10T02:43:40;98.80;97.20;80.60
77239;PMS7003;66258;53.170;-2.240;2023-05-10T02:46:08;178.40;176.20;153.60
77239;PMS7003;66258;53.170;-2.240;2023-05-10T02:48:36;93.00;90.25;64.00
77239;PMS7003;66258;53.170;-2.240;2023-05-10T02:51:06;97.25;96.50;63.00
77239;PMS7003;66258;53.170;-2.240;2023-05-10T02:53:35;879.00;879.00;854.40
77239;PMS7003;66258;53.170;-2.240;2023-05-10T02:56:07;98.60;96.40;74.60
77239;PMS7003;66258;53.170;-2.240;2023-05-10T02:58:42;875.50;875.00;857.00
77239;PMS7003;66258;53.170;-2.240;2023-05-10T03:01:13;333.00;332.80;315.80
77239;PMS7003;66258;53.170;-2.240;2023-05-10T03:03:41;99.80;99.80;76.80
77239;PMS7003;66258;53.170;-2.240;2023-05-10T03:06:10;94.50;90.00;82.00
77239;PMS7003;66258;53.170;-2.240;2023-05-10T03:08:38;96.25;94.75;71.75
77239;PMS7003;66258;53.170;-2.240;2023-05-10T03:11:09;394.75;393.75;362.25
77239;PMS7003;66258;53.170;-2.240;2023-05-10T03:14:16;102.60;94.00;68.00
77239;PMS7003;66258;53.170;-2.240;2023-05-10T03:16:53;82.00;71.00;67.20
77239;PMS7003;66258;53.170;-2.240;2023-05-10T03:19:27;330.00;326.00;315.60
77239;PMS7003;66258;53.170;-2.240;2023-05-10T03:22:08;89.20;81.80;75.20
77239;PMS7003;66258;53.170;-2.240;2023-05-10T03:24:39;1083.00;1082.50;1049.25
77239;PMS7003;66258;53.170;-2.240;2023-05-10T03:27:08;2217.40;2215.00;2196.80
77239;PMS7003;66258;53.170;-2.240;2023-05-10T03:29:37;2369.80;2368.20;2331.80
77239;PMS7003;66258;53.170;-2.240;2023-05-10T03:32:06;2027.60;2027.40;2001.60
77239;PMS7003;66258;53.170;-2.240;2023-05-10T03:34:34;3738.20;3738.20;3733.80
77239;PMS7003;66258;53.170;-2.240;2023-05-10T03:37:12;3609.25;3609.25;3599.75
77239;PMS7003;66258;53.170;-2.240;2023-05-10T03:39:39;3972.20;3972.20;3972.20
77239;PMS7003;66258;53.170;-2.240;2023-05-10T03:42:07;4013.00;4013.00;4013.00
77239;PMS7003;66258;53.170;-2.240;2023-05-10T03:44:34;3458.20;3457.80;3448.20
77239;PMS7003;66258;53.170;-2.240;2023-05-10T03:47:04;3862.25;3862.25;3860.75
77239;PMS7003;66258;53.170;-2.240;2023-05-10T03:49:32;3875.50;3875.50;3874.25
77239;PMS7003;66258;53.170;-2.240;2023-05-10T03:51:59;3684.25;3683.25;3676.50
77239;PMS7003;66258;53.170;-2.240;2023-05-10T03:54:29;3752.25;3752.25;3748.25
77239;PMS7003;66258;53.170;-2.240;2023-05-10T03:56:56;3494.25;3493.00;3481.00
77239;PMS7003;66258;53.170;-2.240;2023-05-10T03:59:24;3171.00;3171.00;3154.40
77239;PMS7003;66258;53.170;-2.240;2023-05-10T04:01:52;3478.40;3478.40;3467.40
77239;PMS7003;66258;53.170;-2.240;2023-05-10T04:04:19;3951.60;3951.60;3951.60
77239;PMS7003;66258;53.170;-2.240;2023-05-10T04:06:46;3556.50;3556.50;3547.00
77239;PMS7003;66258;53.170;-2.240;2023-05-10T04:09:13;3843.50;3843.50;3841.00
77239;PMS7003;66258;53.170;-2.240;2023-05-10T04:11:45;3275.50;3275.50;3258.25
77239;PMS7003;66258;53.170;-2.240;2023-05-10T04:14:12;3954.50;3954.50;3954.50
77239;PMS7003;66258;53.170;-2.240;2023-05-10T04:16:40;3523.25;3522.75;3510.75
77239;PMS7003;66258;53.170;-2.240;2023-05-10T04:19:08;3973.60;3973.60;3973.60
77239;PMS7003;66258;53.170;-2.240;2023-05-10T04:21:36;3844.75;3844.75;3844.00
77239;PMS7003;66258;53.170;-2.240;2023-05-10T04:24:03;3947.40;3947.40;3947.40
77239;PMS7003;66258;53.170;-2.240;2023-05-10T04:26:32;3724.20;3724.20;3719.40
77239;PMS7003;66258;53.170;-2.240;2023-05-10T04:29:01;3948.00;3948.00;3948.00
77239;PMS7003;66258;53.170;-2.240;2023-05-10T04:31:29;3804.40;3804.40;3802.60
77239;PMS7003;66258;53.170;-2.240;2023-05-10T04:33:56;3848.40;3848.40;3847.20
77239;PMS7003;66258;53.170;-2.240;2023-05-10T04:36:24;2962.40;2961.20;2923.00
77239;PMS7003;66258;53.170;-2.240;2023-05-10T04:38:51;3931.25;3931.25;3931.25
77239;PMS7003;66258;53.170;-2.240;2023-05-10T04:41:19;3833.25;3833.25;3830.75
77239;PMS7003;66258;53.170;-2.240;2023-05-10T04:43:47;3915.75;3915.75;3915.75
77239;PMS7003;66258;53.170;-2.240;2023-05-10T04:46:16;3863.20;3863.20;3863.20
77239;PMS7003;66258;53.170;-2.240;2023-05-10T04:48:44;3724.75;3724.75;3719.25
77239;PMS7003;66258;53.170;-2.240;2023-05-10T04:51:12;3863.20;3863.20;3863.20
77239;PMS7003;66258;53.170;-2.240;2023-05-10T04:53:39;3890.75;3890.75;3890.75
77239;PMS7003;66258;53.170;-2.240;2023-05-10T04:56:16;3924.75;3924.75;3924.75
77239;PMS7003;66258;53.170;-2.240;2023-05-10T04:58:45;3888.40;3888.40;3888.40
77239;PMS7003;66258;53.170;-2.240;2023-05-10T05:01:13;3895.25;3895.25;3895.25
77239;PMS7003;66258;53.170;-2.240;2023-05-10T05:03:44;3893.00;3893.00;3893.00
77239;PMS7003;66258;53.170;-2.240;2023-05-10T05:06:11;3847.20;3847.20;3847.20
77239;PMS7003;66258;53.170;-2.240;2023-05-10T05:08:39;3870.75;3870.75;3870.75
77239;PMS7003;66258;53.170;-2.240;2023-05-10T05:11:06;3845.20;3845.20;3845.20
77239;PMS7003;66258;53.170;-2.240;2023-05-10T05:13:33;3831.75;3831.75;3831.75
77239;PMS7003;66258;53.170;-2.240;2023-05-10T05:16:00;3906.50;3906.50;3906.50
77239;PMS7003;66258;53.170;-2.240;2023-05-10T05:18:28;3877.25;3877.25;3877.25
77239;PMS7003;66258;53.170;-2.240;2023-05-10T05:20:58;3884.00;3884.00;3884.00
77239;PMS7003;66258;53.170;-2.240;2023-05-10T05:23:26;3869.00;3869.00;3869.00
77239;PMS7003;66258;53.170;-2.240;2023-05-10T05:25:53;3893.00;3893.00;3893.00
77239;PMS7003;66258;53.170;-2.240;2023-05-10T05:28:20;3868.25;3868.25;3868.25
77239;PMS7003;66258;53.170;-2.240;2023-05-10T05:30:48;3879.50;3879.50;3879.50
77239;PMS7003;66258;53.170;-2.240;2023-05-10T05:33:17;3864.50;3864.50;3864.50
77239;PMS7003;66258;53.170;-2.240;2023-05-10T05:35:45;3851.00;3851.00;3851.00
77239;PMS7003;66258;53.170;-2.240;2023-05-10T05:38:14;3838.00;3838.00;3838.00
77239;PMS7003;66258;53.170;-2.240;2023-05-10T05:40:42;3844.50;3844.50;3844.50
77239;PMS7003;66258;53.170;-2.240;2023-05-10T05:43:09;3820.50;3820.50;3820.50
77239;PMS7003;66258;53.170;-2.240;2023-05-10T05:45:37;3792.50;3792.50;3792.50
77239;PMS7003;66258;53.170;-2.240;2023-05-10T05:48:05;3777.75;3777.75;3777.75
77239;PMS7003;66258;53.170;-2.240;2023-05-10T05:50:33;3761.60;3761.60;3761.60
77239;PMS7003;66258;53.170;-2.240;2023-05-10T05:53:09;3752.25;3752.25;3752.25
77239;PMS7003;66258;53.170;-2.240;2023-05-10T05:55:39;3743.00;3743.00;3743.00
77239;PMS7003;66258;53.170;-2.240;2023-05-10T05:58:07;3721.25;3721.25;3721.25
77239;PMS7003;66258;53.170;-2.240;2023-05-10T06:00:34;3721.25;3721.25;3721.25
77239;PMS7003;66258;53.170;-2.240;2023-05-10T06:03:05;3687.40;3687.40;3687.40
77239;PMS7003;66258;53.170;-2.240;2023-05-10T06:05:33;3695.00;3695.00;3695.00
77239;PMS7003;66258;53.170;-2.240;2023-05-10T06:08:02;3683.00;3683.00;3683.00
77239;PMS7003;66258;53.170;-2.240;2023-05-10T06:10:31;3701.00;3701.00;3701.00
77239;PMS7003;66258;53.170;-2.240;2023-05-10T06:13:01;3687.00;3687.00;3687.00
77239;PMS7003;66258;53.170;-2.240;2023-05-10T06:15:29;3663.40;3663.40;3663.40
77239;PMS7003;66258;53.170;-2.240;2023-05-10T06:17:58;3663.00;3663.00;3663.00
77239;PMS7003;66258;53.170;-2.240;2023-05-10T06:20:26;3653.80;3653.80;3653.80
77239;PMS7003;66258;53.170;-2.240;2023-05-10T06:22:53;3629.00;3629.00;3629.00
77239;PMS7003;66258;53.170;-2.240;2023-05-10T06:25:20;3653.00;3653.00;3653.00
77239;PMS7003;66258;53.170;-2.240;2023-05-10T06:27:48;3624.60;3624.60;3624.60
77239;PMS7003;66258;53.170;-2.240;2023-05-10T06:30:22;3669.00;3669.00;3669.00
77239;PMS7003;66258;53.170;-2.240;2023-05-10T06:32:52;3653.80;3653.80;3653.80
77239;PMS7003;66258;53.170;-2.240;2023-05-10T06:35:23;3618.00;3618.00;3618.00
77239;PMS7003;66258;53.170;-2.240;2023-05-10T06:37:52;3644.20;3644.20;3644.20
77239;PMS7003;66258;53.170;-2.240;2023-05-10T06:40:19;3655.40;3655.40;3655.40
77239;PMS7003;66258;53.170;-2.240;2023-05-10T06:42:49;3589.25;3589.00;3588.00
77239;PMS7003;66258;53.170;-2.240;2023-05-10T06:45:17;3693.80;3693.80;3693.80
77239;PMS7003;66258;53.170;-2.240;2023-05-10T06:47:54;3610.80;3610.80;3609.00
77239;PMS7003;66258;53.170;-2.240;2023-05-10T06:50:24;2994.50;2992.50;2974.50
77239;PMS7003;66258;53.170;-2.240;2023-05-10T06:52:51;3700.20;3700.20;3700.20
77239;PMS7003;66258;53.170;-2.240;2023-05-10T06:55:19;3705.25;3705.25;3705.25
77239;PMS7003;66258;53.170;-2.240;2023-05-10T06:57:47;3733.20;3733.20;3733.20
77239;PMS7003;66258;53.170;-2.240;2023-05-10T07:00:15;3689.00;3689.00;3689.00
77239;PMS7003;66258;53.170;-2.240;2023-05-10T07:02:44;3719.25;3719.25;3719.25
77239;PMS7003;66258;53.170;-2.240;2023-05-10T07:05:13;3730.25;3730.25;3730.25
77239;PMS7003;66258;53.170;-2.240;2023-05-10T07:07:42;3742.25;3742.25;3742.25
77239;PMS7003;66258;53.170;-2.240;2023-05-10T07:10:11;3742.25;3742.25;3742.25
77239;PMS7003;66258;53.170;-2.240;2023-05-10T07:12:40;3649.60;3649.40;3647.60
77239;PMS7003;66258;53.170;-2.240;2023-05-10T07:15:09;3448.60;3448.60;3447.80
77239;PMS7003;66258;53.170;-2.240;2023-05-10T07:17:37;3132.50;3131.50;3122.50
77239;PMS7003;66258;53.170;-2.240;2023-05-10T07:20:05;3716.40;3716.40;3716.40
77239;PMS7003;66258;53.170;-2.240;2023-05-10T07:22:35;3660.80;3660.80;3660.80
77239;PMS7003;66258;53.170;-2.240;2023-05-10T07:25:03;3669.00;3669.00;3669.00
77239;PMS7003;66258;53.170;-2.240;2023-05-10T07:27:30;3661.80;3661.80;3661.80
77239;PMS7003;66258;53.170;-2.240;2023-05-10T07:30:01;3695.00;3695.00;3695.00
77239;PMS7003;66258;53.170;-2.240;2023-05-10T07:32:27;3641.80;3641.80;3641.80
77239;PMS7003;66258;53.170;-2.240;2023-05-10T07:34:55;3663.40;3663.40;3663.40
77239;PMS7003;66258;53.170;-2.240;2023-05-10T07:37:25;3638.60;3638.60;3638.60
77239;PMS7003;66258;53.170;-2.240;2023-05-10T07:39:55;3606.00;3606.00;3606.00
77239;PMS7003;66258;53.170;-2.240;2023-05-10T07:42:23;3587.00;3587.00;3587.00
77239;PMS7003;66258;53.170;-2.240;2023-05-10T07:44:51;3591.00;3591.00;3591.00
77239;PMS7003;66258;53.170;-2.240;2023-05-10T07:47:18;3542.40;3542.40;3542.40
77239;PMS7003;66258;53.170;-2.240;2023-05-10T07:49:46;3546.60;3546.60;3546.60
77239;PMS7003;66258;53.170;-2.240;2023-05-10T07:52:13;3533.40;3533.40;3533.40
77239;PMS7003;66258;53.170;-2.240;2023-05-10T07:54:41;3560.00;3560.00;3560.00
77239;PMS7003;66258;53.170;-2.240;2023-05-10T07:57:11;3591.60;3591.60;3591.60
77239;PMS7003;66258;53.170;-2.240;2023-05-10T07:59:39;3591.00;3591.00;3591.00
77239;PMS7003;66258;53.170;-2.240;2023-05-10T08:02:06;3586.00;3586.00;3586.00
77239;PMS7003;66258;53.170;-2.240;2023-05-10T08:04:33;3608.25;3608.25;3608.25
77239;PMS7003;66258;53.170;-2.240;2023-05-10T08:07:00;3622.60;3622.60;3622.60
77239;PMS7003;66258;53.170;-2.240;2023-05-10T08:09:30;3620.00;3620.00;3620.00
77239;PMS7003;66258;53.170;-2.240;2023-05-10T08:11:57;3629.75;3629.75;3629.75
77239;PMS7003;66258;53.170;-2.240;2023-05-10T08:14:28;3624.00;3624.00;3624.00
77239;PMS7003;66258;53.170;-2.240;2023-05-10T08:16:55;3618.00;3618.00;3618.00
77239;PMS7003;66258;53.170;-2.240;2023-05-10T08:19:23;3601.00;3601.00;3601.00
77239;PMS7003;66258;53.170;-2.240;2023-05-10T08:21:52;3535.80;3535.40;3534.60
77239;PMS7003;66258;53.170;-2.240;2023-05-10T08:24:19;3612.00;3612.00;3612.00
77239;PMS7003;66258;53.170;-2.240;2023-05-10T08:26:47;3619.60;3619.60;3619.60
77239;PMS7003;66258;53.170;-2.240;2023-05-10T08:29:14;3621.20;3621.20;3621.20
77239;PMS7003;66258;53.170;-2.240;2023-05-10T08:31:44;3591.80;3591.80;3591.80
77239;PMS7003;66258;53.170;-2.240;2023-05-10T08:34:12;3618.25;3618.25;3618.25
77239;PMS7003;66258;53.170;-2.240;2023-05-10T08:36:39;3616.20;3616.20;3616.20
77239;PMS7003;66258;53.170;-2.240;2023-05-10T08:39:06;3610.60;3610.60;3610.60
77239;PMS7003;66258;53.170;-2.240;2023-05-10T08:41:45;3651.25;3651.25;3651.25
77239;PMS7003;66258;53.170;-2.240;2023-05-10T08:44:14;3657.00;3657.00;3657.00
77239;PMS7003;66258;53.170;-2.240;2023-05-10T08:46:45;3669.80;3669.80;3669.80
77239;PMS7003;66258;53.170;-2.240;2023-05-10T08:49:13;3651.00;3651.00;3651.00
77239;PMS7003;66258;53.170;-2.240;2023-05-10T08:51:47;3639.25;3639.25;3639.25
77239;PMS7003;66258;53.170;-2.240;2023-05-10T08:54:19;3642.60;3642.60;3642.60
77239;PMS7003;66258;53.170;-2.240;2023-05-10T08:56:48;3631.75;3631.75;3631.75
77239;PMS7003;66258;53.170;-2.240;2023-05-10T08:59:15;3637.00;3637.00;3637.00
77239;PMS7003;66258;53.170;-2.240;2023-05-10T09:01:44;3604.20;3604.20;3604.20
77239;PMS7003;66258;53.170;-2.240;2023-05-10T09:04:13;3637.00;3637.00;3637.00
77239;PMS7003;66258;53.170;-2.240;2023-05-10T09:06:40;3622.60;3622.60;3622.60
77239;PMS7003;66258;53.170;-2.240;2023-05-10T09:09:09;3599.60;3599.60;3599.60
77239;PMS7003;66258;53.170;-2.240;2023-05-10T09:11:38;3600.50;3600.50;3600.50
77239;PMS7003;66258;53.170;-2.240;2023-05-10T09:14:05;3637.00;3637.00;3637.00
77239;PMS7003;66258;53.170;-2.240;2023-05-10T09:16:33;3627.75;3627.75;3627.75
77239;PMS7003;66258;53.170;-2.240;2023-05-10T09:19:02;3614.00;3614.00;3614.00
77239;PMS7003;66258;53.170;-2.240;2023-05-10T09:21:30;3591.60;3591.60;3591.60
77239;PMS7003;66258;53.170;-2.240;2023-05-10T09:23:58;3593.20;3593.20;3593.20
77239;PMS7003;66258;53.170;-2.240;2023-05-10T09:26:31;3592.00;3592.00;3592.00
77239;PMS7003;66258;53.170;-2.240;2023-05-10T09:28:59;3552.80;3552.80;3552.80
77239;PMS7003;66258;53.170;-2.240;2023-05-10T09:34:22;3453.25;3453.25;3453.25
77239;PMS7003;66258;53.170;-2.240;2023-05-10T09:36:58;3457.80;3457.80;3457.80
77239;PMS7003;66258;53.170;-2.240;2023-05-10T09:39:32;3129.00;3129.00;3120.50
77239;PMS7003;66258;53.170;-2.240;2023-05-10T09:42:01;3459.40;3459.40;3459.40
77239;PMS7003;66258;53.170;-2.240;2023-05-10T09:44:30;3472.75;3472.75;3472.75
77239;PMS7003;66258;53.170;-2.240;2023-05-10T09:46:58;3502.40;3502.40;3502.40
77239;PMS7003;66258;53.170;-2.240;2023-05-10T09:49:27;3518.80;3518.80;3518.80
77239;PMS7003;66258;53.170;-2.240;2023-05-10T09:52:02;3539.40;3539.40;3539.40
77239;PMS7003;66258;53.170;-2.240;2023-05-10T09:54:30;3555.50;3555.50;3555.50
77239;PMS7003;66258;53.170;-2.240;2023-05-10T09:56:58;3575.00;3575.00;3575.00
77239;PMS7003;66258;53.170;-2.240;2023-05-10T09:59:26;2424.40;2417.20;2407.20
77239;PMS7003;66258;53.170;-2.240;2023-05-10T10:01:55;3498.20;3498.20;3498.20
77239;PMS7003;66258;53.170;-2.240;2023-05-10T10:04:25;3473.40;3473.40;3473.40
77239;PMS7003;66258;53.170;-2.240;2023-05-10T10:06:59;3442.40;3442.40;3442.40
77239;PMS7003;66258;53.170;-2.240;2023-05-10T10:09:28;3413.00;3413.00;3413.00
77239;PMS7003;66258;53.170;-2.240;2023-05-10T10:11:56;1434.00;1433.00;1409.80
77239;PMS7003;66258;53.170;-2.240;2023-05-10T10:14:23;2195.20;2192.00;2178.20
77239;PMS7003;66258;53.170;-2.240;2023-05-10T10:16:51;3476.60;3476.60;3476.60
77239;PMS7003;66258;53.170;-2.240;2023-05-10T10:19:36;1863.50;1862.00;1847.00
77239;PMS7003;66258;53.170;-2.240;2023-05-10T10:22:04;3068.60;3068.60;3060.20
77239;PMS7003;66258;53.170;-2.240;2023-05-10T10:24:32;3557.00;3557.00;3557.00
77239;PMS7003;66258;53.170;-2.240;2023-05-10T10:27:01;3560.00;3560.00;3560.00
77239;PMS7003;66258;53.170;-2.240;2023-05-10T10:29:35;3563.00;3563.00;3563.00
77239;PMS7003;66258;53.170;-2.240;2023-05-10T10:32:08;3602.80;3602.80;3602.80
77239;PMS7003;66258;53.170;-2.240;2023-05-10T10:34:47;3596.40;3596.40;3596.40
77239;PMS7003;66258;53.170;-2.240;2023-05-10T10:37:14;3635.75;3635.75;3635.75
77239;PMS7003;66258;53.170;-2.240;2023-05-10T10:39:42;3653.00;3653.00;3653.00
77239;PMS7003;66258;53.170;-2.240;2023-05-10T10:42:10;3645.80;3645.80;3645.80
77239;PMS7003;66258;53.170;-2.240;2023-05-10T10:44:39;3655.40;3655.40;3655.40
77239;PMS7003;66258;53.170;-2.240;2023-05-10T10:47:07;3639.75;3639.75;3639.75
77239;PMS7003;66258;53.170;-2.240;2023-05-10T10:49:50;3551.00;3551.00;3551.00
77239;PMS7003;66258;53.170;-2.240;2023-05-10T10:52:30;3565.00;3565.00;3565.00
77239;PMS7003;66258;53.170;-2.240;2023-05-10T10:55:00;3613.20;3613.20;3613.20
77239;PMS7003;66258;53.170;-2.240;2023-05-10T10:57:31;3603.00;3603.00;3603.00
77239;PMS7003;66258;53.170;-2.240;2023-05-10T11:00:18;3674.60;3674.60;3674.60
77239;PMS7003;66258;53.170;-2.240;2023-05-10T11:02:51;3685.80;3685.80;3685.80
77239;PMS7003;66258;53.170;-2.240;2023-05-10T11:05:35;3673.00;3673.00;3673.00
77239;PMS7003;66258;53.170;-2.240;2023-05-10T11:08:08;3723.00;3723.00;3723.00
77239;PMS7003;66258;53.170;-2.240;2023-05-10T11:10:37;3726.80;3726.80;3726.80
77239;PMS7003;66258;53.170;-2.240;2023-05-10T11:13:06;3718.00;3718.00;3718.00
77239;PMS7003;66258;53.170;-2.240;2023-05-10T11:15:34;3703.25;3703.25;3703.25
77239;PMS7003;66258;53.170;-2.240;2023-05-10T11:18:19;3703.25;3703.25;3703.25
77239;PMS7003;66258;53.170;-2.240;2023-05-10T11:20:51;3653.80;3653.80;3653.80
77239;PMS7003;66258;53.170;-2.240;2023-05-10T11:23:19;3621.20;3621.20;3621.20
77239;PMS7003;66258;53.170;-2.240;2023-05-10T11:25:47;3578.20;3578.20;3578.20
77239;PMS7003;66258;53.170;-2.240;2023-05-10T11:28:16;3546.60;3546.60;3546.60
77239;PMS7003;66258;53.170;-2.240;2023-05-10T11:30:45;3527.25;3527.25;3527.25
77239;PMS7003;66258;53.170;-2.240;2023-05-10T11:33:15;3553.00;3553.00;3553.00
77239;PMS7003;66258;53.170;-2.240;2023-05-10T11:35:44;3575.00;3575.00;3575.00
77239;PMS7003;66258;53.170;-2.240;2023-05-10T11:38:15;3563.00;3563.00;3563.00
77239;PMS7003;66258;53.170;-2.240;2023-05-10T11:40:42;3576.80;3576.80;3576.80
77239;PMS7003;66258;53.170;-2.240;2023-05-10T11:43:10;3581.40;3581.40;3581.40
77239;PMS7003;66258;53.170;-2.240;2023-05-10T11:45:38;3626.00;3626.00;3626.00
77239;PMS7003;66258;53.170;-2.240;2023-05-10T11:48:08;3625.60;3625.60;3625.60
77239;PMS7003;66258;53.170;-2.240;2023-05-10T11:50:35;3626.00;3626.00;3626.00
77239;PMS7003;66258;53.170;-2.240;2023-05-10T11:53:04;3625.80;3625.80;3625.80
77239;PMS7003;66258;53.170;-2.240;2023-05-10T11:55:34;2819.60;2808.80;2791.20
77239;PMS7003;66258;53.170;-2.240;2023-05-10T11:58:01;2681.60;2668.60;2643.80
77239;PMS7003;66258;53.170;-2.240;2023-05-10T12:00:29;3695.60;3695.60;3695.60
77239;PMS7003;66258;53.170;-2.240;2023-05-10T12:02:57;3640.60;3639.60;3638.60
77239;PMS7003;66258;53.170;-2.240;2023-05-10T12:05:31;3151.00;3147.50;3144.00
77239;PMS7003;66258;53.170;-2.240;2023-05-10T12:08:13;3736.60;3736.60;3736.60
77239;PMS7003;66258;53.170;-2.240;2023-05-10T12:10:43;3751.00;3751.00;3751.00
77239;PMS7003;66258;53.170;-2.240;2023-05-10T12:13:11;3687.50;3687.50;3687.50
77239;PMS7003;66258;53.170;-2.240;2023-05-10T12:15:40;3694.00;3694.00;3694.00
77239;PMS7003;66258;53.170;-2.240;2023-05-10T12:18:11;3654.40;3654.40;3654.40
77239;PMS7003;66258;53.170;-2.240;2023-05-10T12:20:40;3673.40;3673.40;3673.40
77239;PMS7003;66258;53.170;-2.240;2023-05-10T12:23:10;3700.20;3700.20;3700.20
77239;PMS7003;66258;53.170;-2.240;2023-05-10T12:25:41;3684.20;3684.20;3684.20
77239;PMS7003;66258;53.170;-2.240;2023-05-10T12:28:11;3659.00;3659.00;3659.00
77239;PMS7003;66258;53.170;-2.240;2023-05-10T12:30:38;3665.50;3665.50;3665.50
77239;PMS7003;66258;53.170;-2.240;2023-05-10T12:33:09;3697.20;3697.20;3697.20
77239;PMS7003;66258;53.170;-2.240;2023-05-10T12:35:44;3681.00;3681.00;3681.00
77239;PMS7003;66258;53.170;-2.240;2023-05-10T12:38:24;3634.00;3634.00;3634.00
77239;PMS7003;66258;53.170;-2.240;2023-05-10T12:40:54;3658.60;3658.60;3658.60
77239;PMS7003;66258;53.170;-2.240;2023-05-10T12:43:22;3649.60;3649.60;3649.60
77239;PMS7003;66258;53.170;-2.240;2023-05-10T12:45:49;3668.20;3668.20;3668.20
77239;PMS7003;66258;53.170;-2.240;2023-05-10T12:48:17;3633.60;3633.60;3633.60
77239;PMS7003;66258;53.170;-2.240;2023-05-10T12:50:45;3663.40;3663.40;3663.40
77239;PMS7003;66258;53.170;-2.240;2023-05-10T12:53:16;3684.20;3684.20;3684.20
77239;PMS7003;66258;53.170;-2.240;2023-05-10T12:55:45;3673.00;3673.00;3673.00
77239;PMS7003;66258;53.170;-2.240;2023-05-10T12:58:17;3679.00;3679.00;3679.00
77239;PMS7003;66258;53.170;-2.240;2023-05-10T13:00:53;3685.80;3685.80;3685.80